createdAt,value
2016-09-16T00:00:25.956Z,0
2016-09-16T00:01:26.432Z,0
2016-09-16T00:02:25.863Z,0
2016-09-16T00:03:28.031Z,0
2016-09-16T00:04:27.182Z,0
2016-09-16T00:05:25.725Z,0
2016-09-16T00:06:25.999Z,0
2016-09-16T00:07:25.914Z,0
2016-09-16T00:08:25.927Z,0
2016-09-16T00:09:26.066Z,0
2016-09-16T00:10:25.797Z,0
2016-09-16T00:11:25.764Z,0
2016-09-16T00:12:25.412Z,0
2016-09-16T00:13:25.361Z,0
2016-09-16T00:14:25.611Z,0
2016-09-16T00:15:25.468Z,0
2016-09-16T00:16:25.275Z,0
2016-09-16T00:17:25.703Z,0
2016-09-16T00:18:25.209Z,0
2016-09-16T00:19:25.596Z,0
2016-09-16T00:20:26.001Z,0
2016-09-16T00:21:24.988Z,0
2016-09-16T00:22:25.245Z,0
2016-09-16T00:23:25.210Z,0
2016-09-16T00:24:25.089Z,0
2016-09-16T00:25:25.340Z,0
2016-09-16T00:26:25.274Z,0
2016-09-16T00:27:25.020Z,0
2016-09-16T00:28:25.401Z,0
2016-09-16T00:29:24.942Z,0
2016-09-16T00:30:25.102Z,0
2016-09-16T00:31:24.751Z,0
2016-09-16T00:32:24.996Z,0
2016-09-16T00:33:24.759Z,0
2016-09-16T00:34:24.911Z,0
2016-09-16T00:35:24.877Z,0
2016-09-16T00:36:24.375Z,0
2016-09-16T00:37:24.590Z,0
2016-09-16T00:38:24.446Z,0
2016-09-16T00:39:24.180Z,0
2016-09-16T00:40:24.334Z,0
2016-09-16T00:41:24.643Z,0
2016-09-16T00:42:24.247Z,0
2016-09-16T00:43:23.700Z,0
2016-09-16T00:44:24.155Z,0
2016-09-16T00:45:23.605Z,0
2016-09-16T00:46:24.164Z,0
2016-09-16T00:47:23.811Z,0
2016-09-16T00:48:24.075Z,0
2016-09-16T00:49:24.025Z,0
2016-09-16T00:50:23.691Z,0
2016-09-16T00:51:23.932Z,0
2016-09-16T00:52:23.598Z,0
2016-09-16T00:53:23.950Z,0
2016-09-16T00:54:23.537Z,0
2016-09-16T00:55:23.783Z,0
2016-09-16T00:56:23.463Z,0
2016-09-16T00:57:23.671Z,0
2016-09-16T00:58:23.628Z,0
2016-09-16T00:59:23.566Z,0
2016-09-16T01:00:23.539Z,0
2016-09-16T01:01:23.485Z,0
2016-09-16T01:02:23.197Z,0
2016-09-16T01:03:23.405Z,0
2016-09-16T01:04:23.598Z,0
2016-09-16T01:05:23.193Z,0
2016-09-16T01:06:22.654Z,0
2016-09-16T01:07:23.228Z,0
2016-09-16T01:08:23.175Z,0
2016-09-16T01:09:22.845Z,0
2016-09-16T01:10:23.100Z,0
2016-09-16T01:11:23.040Z,0
2016-09-16T01:12:22.688Z,0
2016-09-16T01:13:22.849Z,0
2016-09-16T01:14:22.910Z,0
2016-09-16T01:15:22.929Z,0
2016-09-16T01:16:22.607Z,0
2016-09-16T01:17:22.771Z,0
2016-09-16T01:18:22.408Z,0
2016-09-16T01:19:22.677Z,0
2016-09-16T01:20:22.330Z,0
2016-09-16T01:21:22.790Z,0
2016-09-16T01:22:22.771Z,0
2016-09-16T01:23:22.490Z,0
2016-09-16T01:24:22.146Z,0
2016-09-16T01:25:22.138Z,0
2016-09-16T01:26:22.370Z,0
2016-09-16T01:27:22.027Z,0
2016-09-16T01:28:21.962Z,0
2016-09-16T01:29:21.914Z,0
2016-09-16T01:30:22.074Z,0
2016-09-16T01:31:21.822Z,0
2016-09-16T01:32:21.783Z,0
2016-09-16T01:33:21.731Z,0
2016-09-16T01:34:21.998Z,0
2016-09-16T01:35:21.949Z,0
2016-09-16T01:36:21.306Z,0
2016-09-16T01:37:21.861Z,0
2016-09-16T01:38:21.815Z,0
2016-09-16T01:39:21.760Z,0
2016-09-16T01:40:21.432Z,0
2016-09-16T01:41:21.694Z,0
2016-09-16T01:42:21.331Z,0
2016-09-16T01:43:21.280Z,0
2016-09-16T01:44:21.549Z,0
2016-09-16T01:45:21.198Z,0
2016-09-16T01:46:21.449Z,0
2016-09-16T01:47:21.413Z,0
2016-09-16T01:48:20.738Z,0
2016-09-16T01:49:21.040Z,0
2016-09-16T01:50:20.982Z,0
2016-09-16T01:51:21.330Z,0
2016-09-16T01:52:21.182Z,0
2016-09-16T01:53:21.334Z,0
2016-09-16T01:54:20.805Z,0
2016-09-16T01:55:21.073Z,0
2016-09-16T01:56:20.888Z,0
2016-09-16T01:57:20.958Z,0
2016-09-16T01:58:20.910Z,0
2016-09-16T01:59:21.062Z,0
2016-09-16T02:00:20.530Z,0
2016-09-16T02:01:20.982Z,0
2016-09-16T02:02:20.109Z,0
2016-09-16T02:03:20.693Z,0
2016-09-16T02:04:20.333Z,0
2016-09-16T02:05:20.588Z,0
2016-09-16T02:06:20.622Z,0
2016-09-16T02:07:20.198Z,0
2016-09-16T02:08:20.490Z,0
2016-09-16T02:09:20.397Z,0
2016-09-16T02:10:20.368Z,0
2016-09-16T02:11:20.503Z,0
2016-09-16T02:12:20.066Z,0
2016-09-16T02:13:19.930Z,0
2016-09-16T02:14:20.061Z,0
2016-09-16T02:15:20.277Z,0
2016-09-16T02:16:20.062Z,0
2016-09-16T02:17:19.736Z,0
2016-09-16T02:18:20.198Z,0
2016-09-16T02:19:19.953Z,0
2016-09-16T02:20:19.946Z,0
2016-09-16T02:21:19.845Z,0
2016-09-16T02:22:19.518Z,0
2016-09-16T02:23:19.790Z,0
2016-09-16T02:24:19.711Z,0
2016-09-16T02:25:19.679Z,0
2016-09-16T02:26:19.620Z,0
2016-09-16T02:27:19.773Z,0
2016-09-16T02:28:19.737Z,0
2016-09-16T02:29:19.707Z,0
2016-09-16T02:30:18.831Z,0
2016-09-16T02:31:19.452Z,0
2016-09-16T02:32:19.627Z,0
2016-09-16T02:33:19.013Z,0
2016-09-16T02:34:19.311Z,0
2016-09-16T02:35:19.234Z,0
2016-09-16T02:36:19.417Z,0
2016-09-16T02:37:19.148Z,0
2016-09-16T02:38:19.298Z,0
2016-09-16T02:39:18.731Z,0
2016-09-16T02:40:18.984Z,0
2016-09-16T02:41:18.844Z,0
2016-09-16T02:42:18.911Z,0
2016-09-16T02:43:18.887Z,0
2016-09-16T02:44:18.720Z,0
2016-09-16T02:45:18.467Z,0
2016-09-16T02:46:18.116Z,0
2016-09-16T02:47:18.890Z,0
2016-09-16T02:48:18.625Z,0
2016-09-16T02:49:18.660Z,0
2016-09-16T02:50:18.447Z,0
2016-09-16T02:51:18.379Z,0
2016-09-16T02:52:18.669Z,0
2016-09-16T02:53:18.438Z,0
2016-09-16T02:54:18.064Z,0
2016-09-16T02:55:18.000Z,0
2016-09-16T02:56:18.175Z,0
2016-09-16T02:57:17.700Z,0
2016-09-16T02:58:17.562Z,0
2016-09-16T02:59:18.142Z,0
2016-09-16T03:00:17.779Z,0
2016-09-16T03:01:17.751Z,0
2016-09-16T03:02:17.695Z,0
2016-09-16T03:03:18.172Z,0
2016-09-16T03:04:17.621Z,0
2016-09-16T03:05:17.870Z,0
2016-09-16T03:06:17.840Z,0
2016-09-16T03:07:17.799Z,0
2016-09-16T03:08:17.774Z,0
2016-09-16T03:09:17.760Z,0
2016-09-16T03:10:18.260Z,0
2016-09-16T03:11:17.805Z,0
2016-09-16T03:12:17.548Z,0
2016-09-16T03:13:17.395Z,0
2016-09-16T03:14:17.453Z,0
2016-09-16T03:15:16.813Z,0
2016-09-16T03:16:17.803Z,0
2016-09-16T03:17:17.339Z,0
2016-09-16T03:18:17.489Z,0
2016-09-16T03:19:17.138Z,0
2016-09-16T03:20:16.885Z,0
2016-09-16T03:21:17.138Z,0
2016-09-16T03:22:17.306Z,0
2016-09-16T03:23:16.755Z,0
2016-09-16T03:24:17.074Z,0
2016-09-16T03:25:16.353Z,0
2016-09-16T03:26:16.967Z,0
2016-09-16T03:27:16.941Z,0
2016-09-16T03:28:16.918Z,0
2016-09-16T03:29:16.925Z,0
2016-09-16T03:30:17.108Z,0
2016-09-16T03:31:16.926Z,0
2016-09-16T03:32:16.740Z,0
2016-09-16T03:33:16.584Z,0
2016-09-16T03:34:16.979Z,0
2016-09-16T03:35:16.205Z,0
2016-09-16T03:36:16.397Z,0
2016-09-16T03:37:16.419Z,0
2016-09-16T03:38:16.382Z,0
2016-09-16T03:39:16.518Z,0
2016-09-16T03:40:15.961Z,0
2016-09-16T03:41:16.107Z,0
2016-09-16T03:42:16.092Z,0
2016-09-16T03:43:16.155Z,0
2016-09-16T03:44:16.284Z,0
2016-09-16T03:45:15.937Z,0
2016-09-16T03:46:15.690Z,0
2016-09-16T03:47:16.266Z,0
2016-09-16T03:48:16.559Z,0
2016-09-16T03:49:15.566Z,0
2016-09-16T03:50:15.836Z,0
2016-09-16T03:51:16.015Z,0
2016-09-16T03:52:16.171Z,0
2016-09-16T03:53:15.384Z,0
2016-09-16T03:54:15.321Z,0
2016-09-16T03:55:15.597Z,0
2016-09-16T03:56:15.745Z,0
2016-09-16T03:57:15.205Z,0
2016-09-16T03:58:15.456Z,0
2016-09-16T03:59:15.477Z,0
2016-09-16T04:00:15.971Z,0
2016-09-16T04:01:15.320Z,0
2016-09-16T04:02:15.287Z,0
2016-09-16T04:03:15.439Z,0
2016-09-16T04:04:14.905Z,0
2016-09-16T04:05:15.178Z,0
2016-09-16T04:06:15.337Z,0
2016-09-16T04:07:15.123Z,0
2016-09-16T04:08:14.688Z,0
2016-09-16T04:09:14.963Z,0
2016-09-16T04:10:15.111Z,0
2016-09-16T04:11:14.758Z,0
2016-09-16T04:12:15.062Z,0
2016-09-16T04:13:14.534Z,0
2016-09-16T04:14:14.434Z,0
2016-09-16T04:15:14.115Z,0
2016-09-16T04:16:14.622Z,0
2016-09-16T04:17:14.330Z,0
2016-09-16T04:18:14.582Z,0
2016-09-16T04:19:14.505Z,0
2016-09-16T04:20:13.836Z,0
2016-09-16T04:21:14.444Z,0
2016-09-16T04:22:14.081Z,0
2016-09-16T04:23:14.207Z,0
2016-09-16T04:24:14.275Z,0
2016-09-16T04:25:13.926Z,0
2016-09-16T04:26:14.165Z,0
2016-09-16T04:27:13.735Z,0
2016-09-16T04:28:13.531Z,0
2016-09-16T04:29:13.752Z,0
2016-09-16T04:30:14.016Z,0
2016-09-16T04:31:13.662Z,0
2016-09-16T04:32:14.110Z,0
2016-09-16T04:33:13.883Z,0
2016-09-16T04:34:13.213Z,0
2016-09-16T04:35:13.966Z,0
2016-09-16T04:36:13.734Z,0
2016-09-16T04:37:13.876Z,0
2016-09-16T04:38:12.712Z,0
2016-09-16T04:39:15.398Z,0
2016-09-16T04:40:16.178Z,0
2016-09-16T04:41:13.559Z,0
2016-09-16T04:42:13.489Z,0
2016-09-16T04:43:13.478Z,0
2016-09-16T04:44:14.884Z,0
2016-09-16T04:45:13.025Z,0
2016-09-16T04:46:12.948Z,0
2016-09-16T04:47:12.938Z,0
2016-09-16T04:48:13.181Z,0
2016-09-16T04:49:13.129Z,0
2016-09-16T04:50:12.979Z,4
2016-09-16T04:51:12.936Z,4
2016-09-16T04:52:12.681Z,4
2016-09-16T04:53:15.464Z,0
2016-09-16T04:54:12.612Z,4
2016-09-16T04:55:12.894Z,4
2016-09-16T04:56:12.820Z,8
2016-09-16T04:57:12.771Z,4
2016-09-16T04:58:12.690Z,8
2016-09-16T04:59:12.681Z,8
2016-09-16T05:00:12.619Z,8
2016-09-16T05:01:12.267Z,12
2016-09-16T05:02:12.227Z,8
2016-09-16T05:03:12.717Z,12
2016-09-16T05:04:12.154Z,12
2016-09-16T05:05:12.615Z,16
2016-09-16T05:06:12.349Z,16
2016-09-16T05:07:12.300Z,16
2016-09-16T05:08:12.496Z,20
2016-09-16T05:09:12.215Z,20
2016-09-16T05:10:16.162Z,24
2016-09-16T05:11:11.807Z,32
2016-09-16T05:12:12.082Z,36
2016-09-16T05:13:11.713Z,36
2016-09-16T05:14:11.682Z,44
2016-09-16T05:15:11.641Z,48
2016-09-16T05:16:11.592Z,56
2016-09-16T05:17:11.565Z,64
2016-09-16T05:18:11.850Z,68
2016-09-16T05:19:11.668Z,76
2016-09-16T05:20:11.777Z,80
2016-09-16T05:21:11.724Z,92
2016-09-16T05:22:11.860Z,96
2016-09-16T05:23:11.984Z,100
2016-09-16T05:24:11.544Z,104
2016-09-16T05:25:11.490Z,108
2016-09-16T05:26:11.477Z,112
2016-09-16T05:27:11.279Z,116
2016-09-16T05:28:11.363Z,120
2016-09-16T05:29:11.306Z,124
2016-09-16T05:30:10.964Z,128
2016-09-16T05:31:10.881Z,136
2016-09-16T05:32:11.173Z,144
2016-09-16T05:33:11.132Z,152
2016-09-16T05:34:10.481Z,160
2016-09-16T05:35:10.722Z,168
2016-09-16T05:36:11.095Z,172
2016-09-16T05:37:10.320Z,184
2016-09-16T05:38:10.583Z,192
2016-09-16T05:39:10.743Z,200
2016-09-16T05:40:10.795Z,204
2016-09-16T05:41:10.741Z,212
2016-09-16T05:42:10.761Z,220
2016-09-16T05:43:10.377Z,224
2016-09-16T05:44:09.988Z,232
2016-09-16T05:45:10.561Z,232
2016-09-16T05:46:10.565Z,240
2016-09-16T05:47:10.169Z,252
2016-09-16T05:48:09.828Z,260
2016-09-16T05:49:10.421Z,268
2016-09-16T05:50:10.251Z,280
2016-09-16T05:51:10.330Z,292
2016-09-16T05:52:10.262Z,300
2016-09-16T05:53:10.231Z,316
2016-09-16T05:54:09.857Z,324
2016-09-16T05:55:10.103Z,328
2016-09-16T05:56:09.780Z,336
2016-09-16T05:57:09.408Z,344
2016-09-16T05:58:10.039Z,356
2016-09-16T05:59:09.855Z,364
2016-09-16T06:00:09.285Z,372
2016-09-16T06:01:10.237Z,380
2016-09-16T06:02:31.101Z,384
2016-09-16T06:03:09.446Z,396
2016-09-16T06:04:09.705Z,416
2016-09-16T06:05:09.376Z,432
2016-09-16T06:06:09.323Z,436
2016-09-16T06:07:09.174Z,456
2016-09-16T06:08:09.538Z,480
2016-09-16T06:09:09.495Z,500
2016-09-16T06:10:09.134Z,516
2016-09-16T06:11:09.105Z,532
2016-09-16T06:12:09.084Z,560
2016-09-16T06:13:09.024Z,584
2016-09-16T06:14:09.249Z,576
2016-09-16T06:15:09.153Z,596
2016-09-16T06:16:08.866Z,604
2016-09-16T06:17:16.702Z,620
2016-09-16T06:18:08.839Z,632
2016-09-16T06:19:09.103Z,636
2016-09-16T06:20:08.681Z,648
2016-09-16T06:21:08.634Z,660
2016-09-16T06:22:08.591Z,680
2016-09-16T06:23:08.541Z,716
2016-09-16T06:24:08.832Z,740
2016-09-16T06:25:08.947Z,780
2016-09-16T06:26:08.492Z,820
2016-09-16T06:27:08.047Z,892
2016-09-16T06:28:08.844Z,944
2016-09-16T06:29:08.487Z,964
2016-09-16T06:30:08.560Z,968
2016-09-16T06:31:08.819Z,976
2016-09-16T06:32:08.139Z,932
2016-09-16T06:33:08.289Z,952
2016-09-16T06:34:08.352Z,1016
2016-09-16T06:35:08.359Z,1000
2016-09-16T06:36:08.195Z,1032
2016-09-16T06:37:08.231Z,1028
2016-09-16T06:38:08.394Z,1124
2016-09-16T06:39:07.531Z,1152
2016-09-16T06:40:07.780Z,1156
2016-09-16T06:41:07.739Z,1168
2016-09-16T06:42:08.027Z,1164
2016-09-16T06:43:07.965Z,1136
2016-09-16T06:44:07.924Z,1164
2016-09-16T06:45:07.243Z,1224
2016-09-16T06:46:07.820Z,1168
2016-09-16T06:47:07.770Z,1104
2016-09-16T06:48:07.334Z,1148
2016-09-16T06:49:07.419Z,1248
2016-09-16T06:50:07.644Z,1288
2016-09-16T06:51:07.588Z,1288
2016-09-16T06:52:07.235Z,1280
2016-09-16T06:53:07.195Z,1460
2016-09-16T06:54:07.461Z,1364
2016-09-16T06:55:07.159Z,1300
2016-09-16T06:56:06.744Z,1128
2016-09-16T06:57:07.422Z,1076
2016-09-16T06:58:07.493Z,1136
2016-09-16T06:59:07.446Z,1232
2016-09-16T07:00:06.876Z,1280
2016-09-16T07:01:06.885Z,1316
2016-09-16T07:02:06.479Z,1372
2016-09-16T07:03:06.447Z,1336
2016-09-16T07:04:07.017Z,1152
2016-09-16T07:05:06.550Z,1244
2016-09-16T07:06:07.320Z,1144
2016-09-16T07:07:06.593Z,1168
2016-09-16T07:08:07.011Z,1260
2016-09-16T07:09:06.510Z,1188
2016-09-16T07:10:06.441Z,1328
2016-09-16T07:11:06.384Z,1312
2016-09-16T07:12:06.846Z,1408
2016-09-16T07:13:06.792Z,1640
2016-09-16T07:14:06.874Z,1648
2016-09-16T07:15:06.135Z,1544
2016-09-16T07:16:07.877Z,1408
2016-09-16T07:17:07.381Z,1652
2016-09-16T07:18:06.273Z,1792
2016-09-16T07:19:06.532Z,1612
2016-09-16T07:20:06.450Z,1856
2016-09-16T07:21:06.004Z,1972
2016-09-16T07:22:05.970Z,1972
2016-09-16T07:23:06.216Z,1688
2016-09-16T07:24:06.220Z,1664
2016-09-16T07:25:06.092Z,1884
2016-09-16T07:26:06.037Z,1824
2016-09-16T07:27:06.547Z,2180
2016-09-16T07:28:06.229Z,2316
2016-09-16T07:29:06.205Z,2300
2016-09-16T07:30:05.588Z,2328
2016-09-16T07:31:06.446Z,2340
2016-09-16T07:32:05.451Z,2320
2016-09-16T07:33:05.608Z,2512
2016-09-16T07:34:05.878Z,2528
2016-09-16T07:35:05.406Z,2576
2016-09-16T07:36:05.369Z,2608
2016-09-16T07:37:05.826Z,2600
2016-09-16T07:38:05.456Z,2604
2016-09-16T07:39:07.922Z,2656
2016-09-16T07:40:05.350Z,2692
2016-09-16T07:41:05.373Z,2748
2016-09-16T07:42:05.267Z,2784
2016-09-16T07:43:05.317Z,2836
2016-09-16T07:44:05.486Z,2880
2016-09-16T07:45:05.175Z,2884
2016-09-16T07:46:05.193Z,2980
2016-09-16T07:47:04.975Z,3024
2016-09-16T07:48:06.129Z,3036
2016-09-16T07:49:04.703Z,3068
2016-09-16T07:50:04.821Z,3096
2016-09-16T07:51:04.928Z,3124
2016-09-16T07:52:05.159Z,3144
2016-09-16T07:53:04.860Z,3220
2016-09-16T07:54:04.401Z,3216
2016-09-16T07:55:04.604Z,3204
2016-09-16T07:56:05.067Z,3392
2016-09-16T07:57:04.031Z,3396
2016-09-16T07:58:04.289Z,3468
2016-09-16T07:59:04.470Z,3544
2016-09-16T08:00:05.272Z,3624
2016-09-16T08:01:04.459Z,3700
2016-09-16T08:02:03.816Z,3772
2016-09-16T08:03:04.599Z,3776
2016-09-16T08:04:04.332Z,3824
2016-09-16T08:05:05.415Z,3896
2016-09-16T08:06:04.240Z,3932
2016-09-16T08:07:04.523Z,3984
2016-09-16T08:08:05.091Z,4000
2016-09-16T08:09:04.487Z,3932
2016-09-16T08:10:04.436Z,3976
2016-09-16T08:11:04.241Z,4040
2016-09-16T08:12:04.304Z,4088
2016-09-16T08:13:04.106Z,4272
2016-09-16T08:14:03.564Z,4440
2016-09-16T08:15:04.195Z,4404
2016-09-16T08:16:03.999Z,4488
2016-09-16T08:17:04.870Z,4544
2016-09-16T08:18:04.280Z,4524
2016-09-16T08:19:03.870Z,4512
2016-09-16T08:20:03.305Z,4604
2016-09-16T08:21:03.277Z,2584
2016-09-16T08:22:04.140Z,3652
2016-09-16T08:23:03.514Z,1384
2016-09-16T08:24:03.711Z,4648
2016-09-16T08:25:04.082Z,4540
2016-09-16T08:26:03.906Z,4308
2016-09-16T08:27:03.030Z,4380
2016-09-16T08:28:04.013Z,3936
2016-09-16T08:29:03.006Z,4536
2016-09-16T08:30:03.010Z,1484
2016-09-16T08:31:02.953Z,3200
2016-09-16T08:32:02.971Z,4636
2016-09-16T08:33:04.101Z,2920
2016-09-16T08:34:02.388Z,4848
2016-09-16T08:35:03.323Z,4700
2016-09-16T08:36:03.508Z,3856
2016-09-16T08:37:03.323Z,4392
2016-09-16T08:38:03.342Z,4084
2016-09-16T08:39:02.529Z,4372
2016-09-16T08:40:02.341Z,4340
2016-09-16T08:41:03.254Z,4284
2016-09-16T08:42:02.342Z,4280
2016-09-16T08:43:02.670Z,4376
2016-09-16T08:44:03.426Z,4168
2016-09-16T08:45:02.606Z,4252
2016-09-16T08:46:04.059Z,4184
2016-09-16T08:47:02.416Z,4264
2016-09-16T08:48:03.735Z,4208
2016-09-16T08:49:03.979Z,3352
2016-09-16T08:50:02.101Z,4544
2016-09-16T08:51:02.625Z,4344
2016-09-16T08:52:02.476Z,4528
2016-09-16T08:53:02.894Z,2172
2016-09-16T08:54:02.155Z,1296
2016-09-16T08:55:03.162Z,4504
2016-09-16T08:56:02.866Z,1408
2016-09-16T08:57:02.351Z,4604
2016-09-16T08:58:02.038Z,1644
2016-09-16T08:59:02.519Z,4464
2016-09-16T09:00:02.813Z,1848
2016-09-16T09:01:02.106Z,4448
2016-09-16T09:02:01.827Z,2412
2016-09-16T09:03:01.751Z,4444
2016-09-16T09:04:01.213Z,2232
2016-09-16T09:05:01.694Z,4420
2016-09-16T09:06:03.163Z,4344
2016-09-16T09:07:01.511Z,1004
2016-09-16T09:08:01.920Z,4448
2016-09-16T09:09:01.833Z,3892
2016-09-16T09:10:01.967Z,1356
2016-09-16T09:11:01.571Z,4084
2016-09-16T09:12:00.856Z,4396
2016-09-16T09:13:01.410Z,4452
2016-09-16T09:14:01.457Z,4564
2016-09-16T09:15:00.941Z,4460
2016-09-16T09:16:01.369Z,1168
2016-09-16T09:17:00.959Z,4508
2016-09-16T09:18:00.706Z,1420
2016-09-16T09:19:00.816Z,1860
2016-09-16T09:20:01.425Z,1344
2016-09-16T09:21:01.287Z,1244
2016-09-16T09:22:00.992Z,2184
2016-09-16T09:23:02.063Z,2052
2016-09-16T09:24:00.905Z,1904
2016-09-16T09:25:00.316Z,1704
2016-09-16T09:26:00.168Z,2588
2016-09-16T09:27:00.351Z,1388
2016-09-16T09:28:01.015Z,1204
2016-09-16T09:29:01.610Z,4652
2016-09-16T09:30:00.663Z,4672
2016-09-16T09:31:00.498Z,2200
2016-09-16T09:32:00.565Z,2496
2016-09-16T09:33:00.348Z,2040
2016-09-16T09:34:00.525Z,3268
2016-09-16T09:35:01.474Z,2012
2016-09-16T09:36:00.057Z,1484
2016-09-16T09:37:00.490Z,3136
2016-09-16T09:38:00.115Z,3892
2016-09-16T09:38:59.620Z,2640
2016-09-16T09:40:00.448Z,3860
2016-09-16T09:41:00.520Z,4668
2016-09-16T09:42:00.318Z,4628
2016-09-16T09:42:59.876Z,3260
2016-09-16T09:44:00.400Z,5016
2016-09-16T09:45:00.238Z,2036
2016-09-16T09:45:59.973Z,4828
2016-09-16T09:46:59.976Z,4856
2016-09-16T09:47:59.889Z,1672
2016-09-16T09:49:00.067Z,3916
2016-09-16T09:49:59.767Z,4848
2016-09-16T09:50:59.400Z,3544
2016-09-16T09:51:59.570Z,4208
2016-09-16T09:52:59.279Z,4208
2016-09-16T09:53:59.834Z,2928
2016-09-16T09:54:59.563Z,1752
2016-09-16T09:55:59.627Z,2340
2016-09-16T09:56:58.730Z,1996
2016-09-16T09:57:59.022Z,3312
2016-09-16T09:59:00.453Z,4080
2016-09-16T09:59:58.926Z,3660
2016-09-16T10:00:58.631Z,1792
2016-09-16T10:01:59.277Z,2916
2016-09-16T10:02:59.018Z,2540
2016-09-16T10:03:59.090Z,2072
2016-09-16T10:04:58.667Z,1916
2016-09-16T10:05:58.745Z,2136
2016-09-16T10:06:58.683Z,2908
2016-09-16T10:07:58.619Z,4916
2016-09-16T10:09:00.275Z,4948
2016-09-16T10:09:58.889Z,4692
2016-09-16T10:10:58.699Z,4840
2016-09-16T10:11:58.859Z,2076
2016-09-16T10:12:58.357Z,2092
2016-09-16T10:13:58.833Z,3076
2016-09-16T10:14:58.231Z,2148
2016-09-16T10:15:58.684Z,2300
2016-09-16T10:16:58.179Z,2332
2016-09-16T10:17:58.375Z,1976
2016-09-16T10:18:58.280Z,3444
2016-09-16T10:19:58.381Z,3512
2016-09-16T10:20:58.526Z,2156
2016-09-16T10:21:58.238Z,1860
2016-09-16T10:22:57.646Z,1856
2016-09-16T10:23:58.150Z,1936
2016-09-16T10:24:59.019Z,2196
2016-09-16T10:25:58.143Z,2484
2016-09-16T10:26:58.073Z,2108
2016-09-16T10:27:57.967Z,2372
2016-09-16T10:28:57.586Z,2448
2016-09-16T10:29:57.950Z,2464
2016-09-16T10:30:57.942Z,2336
2016-09-16T10:31:57.588Z,2288
2016-09-16T10:32:57.414Z,2092
2016-09-16T10:33:57.717Z,2108
2016-09-16T10:34:57.372Z,2176
2016-09-16T10:35:57.282Z,2244
2016-09-16T10:36:57.544Z,2396
2016-09-16T10:37:57.066Z,2436
2016-09-16T10:38:57.218Z,2688
2016-09-16T10:39:57.303Z,3536
2016-09-16T10:40:57.584Z,3040
2016-09-16T10:41:57.371Z,2996
2016-09-16T10:42:56.990Z,3272
2016-09-16T10:43:56.602Z,2600
2016-09-16T10:44:57.213Z,2464
2016-09-16T10:45:57.155Z,2460
2016-09-16T10:46:56.777Z,2372
2016-09-16T10:47:56.817Z,2372
2016-09-16T10:48:56.467Z,2372
2016-09-16T10:49:56.660Z,2400
2016-09-16T10:50:56.323Z,2348
2016-09-16T10:51:56.953Z,2364
2016-09-16T10:52:56.579Z,2348
2016-09-16T10:53:56.486Z,2360
2016-09-16T10:54:57.045Z,2240
2016-09-16T10:55:56.570Z,2256
2016-09-16T10:56:56.675Z,2288
2016-09-16T10:57:56.275Z,2340
2016-09-16T10:58:56.613Z,2412
2016-09-16T10:59:56.217Z,2388
2016-09-16T11:00:56.564Z,2364
2016-09-16T11:01:56.406Z,2268
2016-09-16T11:02:56.562Z,2248
2016-09-16T11:03:55.722Z,2384
2016-09-16T11:04:55.660Z,2604
2016-09-16T11:05:56.253Z,2560
2016-09-16T11:06:55.827Z,2524
2016-09-16T11:07:55.851Z,2476
2016-09-16T11:08:56.102Z,2384
2016-09-16T11:09:55.791Z,2328
2016-09-16T11:10:56.274Z,2256
2016-09-16T11:11:56.166Z,2248
2016-09-16T11:12:55.655Z,2204
2016-09-16T11:13:55.380Z,2172
2016-09-16T11:14:55.890Z,2140
2016-09-16T11:15:55.793Z,2104
2016-09-16T11:16:55.767Z,2076
2016-09-16T11:17:55.707Z,2036
2016-09-16T11:19:09.884Z,1976
2016-09-16T11:19:55.124Z,1936
2016-09-16T11:20:55.592Z,1892
2016-09-16T11:21:55.465Z,1884
2016-09-16T11:22:55.402Z,1896
2016-09-16T11:23:55.154Z,1904
2016-09-16T11:24:55.417Z,1916
2016-09-16T11:25:55.376Z,1932
2016-09-16T11:26:55.366Z,1940
2016-09-16T11:27:55.285Z,1940
2016-09-16T11:28:55.474Z,1968
2016-09-16T11:29:54.951Z,1984
2016-09-16T11:30:54.832Z,1980
2016-09-16T11:31:54.802Z,1996
2016-09-16T11:32:55.064Z,2008
2016-09-16T11:33:55.122Z,2012
2016-09-16T11:34:54.352Z,2032
2016-09-16T11:35:55.112Z,2044
2016-09-16T11:36:54.898Z,2124
2016-09-16T11:37:54.886Z,2316
2016-09-16T11:38:55.206Z,2356
2016-09-16T11:39:54.779Z,2544
2016-09-16T11:40:54.851Z,2204
2016-09-16T11:41:54.667Z,2156
2016-09-16T11:42:54.329Z,2176
2016-09-16T11:43:54.316Z,2260
2016-09-16T11:44:54.368Z,2196
2016-09-16T11:45:54.575Z,2340
2016-09-16T11:46:54.245Z,3296
2016-09-16T11:47:54.480Z,3024
2016-09-16T11:48:54.211Z,2172
2016-09-16T11:49:54.467Z,2132
2016-09-16T11:50:54.346Z,2040
2016-09-16T11:51:54.482Z,2040
2016-09-16T11:52:54.200Z,2020
2016-09-16T11:53:53.871Z,2016
2016-09-16T11:54:54.725Z,1960
2016-09-16T11:55:55.441Z,1936
2016-09-16T11:56:54.929Z,1984
2016-09-16T11:57:54.685Z,1972
2016-09-16T11:58:53.589Z,1960
2016-09-16T11:59:53.726Z,1968
2016-09-16T12:00:53.857Z,1988
2016-09-16T12:01:53.606Z,2016
2016-09-16T12:02:53.485Z,2072
2016-09-16T12:03:54.022Z,2092
2016-09-16T12:04:53.675Z,2116
2016-09-16T12:05:53.943Z,2120
2016-09-16T12:06:53.380Z,2364
2016-09-16T12:07:53.776Z,2384
2016-09-16T12:08:53.195Z,2372
2016-09-16T12:09:54.719Z,2476
2016-09-16T12:10:53.664Z,2540
2016-09-16T12:11:53.769Z,2516
2016-09-16T12:12:53.059Z,2460
2016-09-16T12:13:53.538Z,2452
2016-09-16T12:14:53.044Z,2380
2016-09-16T12:15:52.607Z,2416
2016-09-16T12:16:52.823Z,2068
2016-09-16T12:17:53.766Z,2108
2016-09-16T12:18:52.773Z,2432
2016-09-16T12:19:53.573Z,2428
2016-09-16T12:20:52.989Z,2356
2016-09-16T12:21:52.743Z,2164
2016-09-16T12:22:52.950Z,2184
2016-09-16T12:23:52.825Z,2216
2016-09-16T12:24:54.552Z,2240
2016-09-16T12:25:52.992Z,2348
2016-09-16T12:26:53.210Z,2272
2016-09-16T12:27:52.706Z,2332
2016-09-16T12:28:52.529Z,2252
2016-09-16T12:29:52.848Z,2224
2016-09-16T12:30:52.159Z,2220
2016-09-16T12:31:52.188Z,2108
2016-09-16T12:32:52.039Z,2016
2016-09-16T12:33:52.607Z,1940
2016-09-16T12:34:52.093Z,1924
2016-09-16T12:35:52.269Z,1996
2016-09-16T12:36:51.793Z,1940
2016-09-16T12:37:52.292Z,1916
2016-09-16T12:38:52.725Z,1888
2016-09-16T12:39:51.956Z,1924
2016-09-16T12:40:52.134Z,1932
2016-09-16T12:41:52.147Z,1936
2016-09-16T12:42:51.881Z,1956
2016-09-16T12:43:51.744Z,1936
2016-09-16T12:44:51.641Z,1948
2016-09-16T12:45:51.924Z,1948
2016-09-16T12:46:52.208Z,1896
2016-09-16T12:47:51.659Z,1928
2016-09-16T12:48:51.506Z,1900
2016-09-16T12:49:51.307Z,1900
2016-09-16T12:50:51.761Z,1924
2016-09-16T12:51:51.428Z,1968
2016-09-16T12:52:51.648Z,1968
2016-09-16T12:53:51.584Z,1972
2016-09-16T12:54:51.295Z,1992
2016-09-16T12:55:51.510Z,2020
2016-09-16T12:56:51.604Z,2064
2016-09-16T12:57:51.489Z,2044
2016-09-16T12:58:51.109Z,2028
2016-09-16T12:59:51.188Z,2036
2016-09-16T13:00:51.204Z,2044
2016-09-16T13:01:51.349Z,2048
2016-09-16T13:02:51.270Z,2056
2016-09-16T13:03:51.153Z,2064
2016-09-16T13:04:50.904Z,2064
2016-09-16T13:05:51.095Z,2064
2016-09-16T13:06:51.025Z,2060
2016-09-16T13:07:51.155Z,2048
2016-09-16T13:08:50.014Z,2036
2016-09-16T13:09:50.892Z,2016
2016-09-16T13:10:50.878Z,2004
2016-09-16T13:11:50.930Z,1996
2016-09-16T13:12:50.455Z,2000
2016-09-16T13:13:50.782Z,2004
2016-09-16T13:14:50.870Z,2000
2016-09-16T13:15:50.900Z,1996
2016-09-16T13:16:49.991Z,1996
2016-09-16T13:17:50.252Z,1996
2016-09-16T13:18:50.780Z,2000
2016-09-16T13:19:49.837Z,2008
2016-09-16T13:20:50.087Z,2028
2016-09-16T13:21:50.057Z,2048
2016-09-16T13:22:50.318Z,2076
2016-09-16T13:23:50.475Z,2104
2016-09-16T13:24:49.919Z,2136
2016-09-16T13:25:50.177Z,2168
2016-09-16T13:26:50.182Z,2192
2016-09-16T13:27:50.090Z,2204
2016-09-16T13:28:50.048Z,2212
2016-09-16T13:29:49.905Z,2232
2016-09-16T13:30:49.713Z,2296
2016-09-16T13:31:49.698Z,2432
2016-09-16T13:32:49.946Z,2508
2016-09-16T13:33:49.747Z,2544
2016-09-16T13:34:49.838Z,2644
2016-09-16T13:35:49.526Z,2672
2016-09-16T13:36:49.801Z,2844
2016-09-16T13:37:49.510Z,2768
2016-09-16T13:38:49.637Z,2760
2016-09-16T13:39:49.579Z,3172
2016-09-16T13:40:49.260Z,3368
2016-09-16T13:41:49.733Z,3164
2016-09-16T13:42:49.396Z,2908
2016-09-16T13:43:49.450Z,2828
2016-09-16T13:44:49.388Z,2900
2016-09-16T13:45:49.313Z,2892
2016-09-16T13:46:48.985Z,2808
2016-09-16T13:47:49.239Z,2808
2016-09-16T13:48:48.959Z,2724
2016-09-16T13:49:48.837Z,2668
2016-09-16T13:50:48.837Z,2576
2016-09-16T13:51:48.765Z,2488